Airfield :
LOGIN :

Register | Disclaimer

   EN    FR    IT 

 










Legend :    VFR   Marginal VFR   IFR   Intensive IFR   Very Intensive IFR
Visi :
Ceiling :
>= 8 km
>= 3000ft
5 to 8 km
1000 to 3000 ft
1500m to 5 km
500 to 1000 ft
800 to 1500m
200 to 500 ft
< 800m
< 200 ft
Symbols :   Thunderstorms  Fog  Heavy snow  Heavy precipitations  Wind > 20 kt
SIGMETs :     Misc.  Thunderstorms  Icing  Turbulence  Mountain Waves  Volcanic Ashes







- Airport Elevation : 26 ft
- IATA code : BIA
- Download approach charts


LFKB - Bastia

CURRENT METAR :
  • 200730Z AUTO VRB02KT CAVOK 25/18 Q1014 NOSIG

EXPIRED METARs :
  • 200700Z AUTO VRB03KT CAVOK 25/19 Q1014 NOSIG
  • 200630Z AUTO VRB03KT CAVOK 23/17 Q1014 NOSIG
  • 200600Z AUTO 21003KT CAVOK 21/16 Q1014 NOSIG
  • 200530Z AUTO 20003KT 180V240 CAVOK 20/15 Q1014 NOSIG
  • 200500Z AUTO 21003KT CAVOK 19/15 Q1014 NOSIG
  • 200430Z AUTO 21004KT CAVOK 17/14 Q1014 NOSIG

TAF TAF LFKB
Valid from the 20 at 03:00 until the 21 at 03:00 UTC


200200Z 2003/2103 24004KT CAVOK TX27/2012Z TN17/2004Z
BECMG 2008/2010 12010KT
BECMG 2019/2021 24004KT
PROB40
TEMPO 2023/2103 BKN007
ATIS : +33 4 95 59 19 40
No reported NOTAMs for that airfield.
2 SIGMETs reported for the Marseille FIR (LFMM) :
 
SIGMET 2  cancelation
LFMM SIGMET 3 VALID 200705/200800 LFPW
LFMM MARSEILLE FIR/UIR CNL SIGMET 2 200600/200800=
SIGMET 2  CANCELED :
Embedded thunderstorms
LFMM SIGMET 2 VALID 200600/200800 LFPW
LFMM MARSEILLE FIR/UIR EMBD TS OBS WI N4500 E00445 - N4615 E00600 - N4600 E00645 - N4430 E00530 - N4500 E00445 TOP FL320 MOV NE 20KT NC=



MET'MAP, your aeronautical weather chart ! - Copyright ORBIFLY December 2007 - Disclaimer

ORBIFLY MET'MAP TEAM :

Programming & Development : Alexandra Zaïnal
Concept & Development : Baudouin d'Aumeries
Co-Development & Prog : Marc-Olivier Méhu
Technical & hardware support : Manuel Goepfert

Contact : metmap@orbifly.com




SOURCES & CREDITS :

   NOAA